Time;durP1;ratioP1;P1;durP2;ratioP2;P2;SDS_P1;SDS_P2;PMS_P1;PMS_P2;Temp;Humidity;BMP_temperature;BMP_pressure;BME280_temperature;BME280_humidity;BME280_pressure;Samples;Min_cycle;Max_cycle;Signal;HPM_P1;HPM_P2
2023/01/26 00:01:55;;;;;;;134.17;60.80;;;;;;;-2.63;100.00;102387.66;5241943;28;20034;-70
2023/01/26 00:04:26;;;;;;;136.57;61.33;;;;;;;-2.63;100.00;102391.06;5241423;28;20033;-70
2023/01/26 00:06:58;;;;;;;122.57;59.63;;;;;;;-2.64;100.00;102385.88;5241653;28;20389;-70
2023/01/26 00:09:29;;;;;;;135.07;60.53;;;;;;;-2.63;100.00;102383.41;5241634;28;20354;-70
2023/01/26 00:12:00;;;;;;;126.27;59.43;;;;;;;-2.60;100.00;102377.66;5241633;28;20377;-70
2023/01/26 00:14:48;;;;;;;124.63;57.57;;;;;;;-2.63;100.00;102373.22;5242155;28;20043;-70
2023/01/26 00:17:26;;;;;;;136.15;60.97;;;;;;;-2.59;100.00;102370.09;5242080;28;20060;-70
2023/01/26 00:19:57;;;;;;;131.75;59.58;;;;;;;-2.58;100.00;102366.78;5241886;28;20026;-70
2023/01/26 00:22:29;;;;;;;127.13;59.97;;;;;;;-2.58;100.00;102370.97;5241735;28;20033;-70
2023/01/26 00:25:00;;;;;;;128.30;58.60;;;;;;;-2.57;100.00;102360.84;5241531;28;20025;-70
2023/01/26 00:27:32;;;;;;;120.77;58.50;;;;;;;-2.56;100.00;102359.19;5240234;28;20041;-70
2023/01/26 00:30:03;;;;;;;118.07;55.37;;;;;;;-2.58;100.00;102360.75;5241471;28;20040;-70
2023/01/26 00:32:35;;;;;;;112.43;53.77;;;;;;;-2.60;100.00;102355.53;5241556;28;20200;-71
2023/01/26 00:35:07;;;;;;;123.13;59.60;;;;;;;-2.58;100.00;102356.56;5241387;28;20492;-70
2023/01/26 00:37:41;;;;;;;123.23;60.17;;;;;;;-2.57;100.00;102347.22;5241326;28;20523;-70
2023/01/26 00:40:13;;;;;;;113.32;55.40;;;;;;;-2.57;100.00;102354.88;5241317;28;20045;-71
2023/01/26 00:42:44;;;;;;;123.07;59.80;;;;;;;-2.59;100.00;102344.56;5241542;28;20032;-70
2023/01/26 00:45:15;;;;;;;122.70;59.77;;;;;;;-2.60;100.00;102349.56;5241836;28;20179;-70
2023/01/26 00:47:47;;;;;;;120.70;55.63;;;;;;;-2.53;100.00;102346.63;5242745;28;20103;-70
2023/01/26 00:50:19;;;;;;;124.97;59.80;;;;;;;-2.52;100.00;102339.88;5243407;28;20374;-71
2023/01/26 00:52:50;;;;;;;120.97;57.47;;;;;;;-2.51;100.00;102328.84;5245046;28;20040;-71
2023/01/26 00:55:21;;;;;;;118.50;56.83;;;;;;;-2.52;100.00;102320.31;5245201;28;20108;-71
2023/01/26 00:57:53;;;;;;;124.00;56.97;;;;;;;-2.50;100.00;102331.50;5245386;28;20037;-70
2023/01/26 01:00:24;;;;;;;111.30;53.40;;;;;;;-2.49;100.00;102317.09;5245377;28;20053;-70
2023/01/26 01:02:56;;;;;;;110.47;56.13;;;;;;;-2.51;100.00;102316.06;5244392;28;20473;-70
2023/01/26 01:05:30;;;;;;;107.85;52.15;;;;;;;-2.52;100.00;102320.31;5244402;28;20411;-70
2023/01/26 01:08:02;;;;;;;113.22;54.40;;;;;;;-2.51;100.00;102316.97;5244397;28;20025;-70
2023/01/26 01:10:33;;;;;;;106.53;53.93;;;;;;;-2.53;100.00;102315.97;5244941;28;20051;-70
2023/01/26 01:13:04;;;;;;;115.43;56.43;;;;;;;-2.51;100.00;102305.88;5244287;28;20033;-70
2023/01/26 01:15:37;;;;;;;114.10;54.40;;;;;;;-2.51;100.00;102303.31;5243317;28;20505;-71
2023/01/26 01:18:09;;;;;;;115.60;52.90;;;;;;;-2.48;100.00;102300.97;5244553;28;20033;-71
2023/01/26 01:20:40;;;;;;;109.43;55.47;;;;;;;-2.47;100.00;102306.16;5244170;28;20033;-70
2023/01/26 01:23:11;;;;;;;116.43;54.43;;;;;;;-2.50;100.00;102308.53;5244308;28;20043;-70
2023/01/26 01:25:43;;;;;;;117.13;58.27;;;;;;;-2.51;100.00;102311.88;5244411;28;20161;-70
2023/01/26 01:28:14;;;;;;;109.97;54.10;;;;;;;-2.50;100.00;102305.97;5243974;28;20033;-70
2023/01/26 01:30:45;;;;;;;112.63;54.93;;;;;;;-2.43;100.00;102309.78;5243920;28;20045;-71
2023/01/26 01:33:17;;;;;;;103.97;51.90;;;;;;;-2.43;100.00;102300.50;5244551;28;20449;-71
2023/01/26 01:35:56;;;;;;;110.63;53.77;;;;;;;-2.41;100.00;102304.00;5244448;28;20030;-71
2023/01/26 01:38:27;;;;;;;108.25;52.78;;;;;;;-2.38;100.00;102308.44;5244054;28;20037;-71
2023/01/26 01:40:59;;;;;;;110.17;55.30;;;;;;;-2.32;100.00;102308.81;5244386;28;20033;-70
2023/01/26 01:43:30;;;;;;;110.30;53.93;;;;;;;-2.31;100.00;102313.16;5243919;28;20026;-70
2023/01/26 01:46:18;;;;;;;105.23;52.27;;;;;;;-2.35;100.00;102311.19;5243732;28;20053;-70
2023/01/26 01:49:13;;;;;;;106.03;51.70;;;;;;;-2.35;100.00;102310.28;5243776;28;20030;-71
2023/01/26 01:51:51;;;;;;;107.65;50.28;;;;;;;-2.37;100.00;102305.09;5244342;28;20034;-70
2023/01/26 01:54:38;;;;;;;112.03;54.53;;;;;;;-2.37;100.00;102310.19;5244179;28;20368;-71
2023/01/26 01:57:16;;;;;;;106.20;50.13;;;;;;;-2.33;100.00;102319.84;5243324;28;20061;-71
2023/01/26 01:59:53;;;;;;;103.18;50.63;;;;;;;-2.32;100.00;102319.03;5242813;28;20449;-70
2023/01/26 02:02:25;;;;;;;102.03;51.05;;;;;;;-2.31;100.00;102317.38;5243504;28;20025;-71
2023/01/26 02:05:03;;;;;;;104.07;50.97;;;;;;;-2.33;100.00;102304.50;5243698;28;20033;-70
2023/01/26 02:07:36;;;;;;;102.40;49.60;;;;;;;-2.30;100.00;102302.16;5244045;28;20407;-71
2023/01/26 02:10:17;;;;;;;101.38;47.97;;;;;;;-2.32;100.00;102301.16;5243516;28;20026;-70
2023/01/26 02:12:59;;;;;;;98.45;47.85;;;;;;;-2.30;100.00;102307.28;5242097;28;20068;-70
2023/01/26 02:15:30;;;;;;;101.22;49.40;;;;;;;-2.30;100.00;102302.16;5243437;28;20041;-71
2023/01/26 02:18:04;;;;;;;104.37;50.13;;;;;;;-2.26;100.00;102291.34;5242156;28;20033;-70
2023/01/26 02:20:49;;;;;;;105.05;48.15;;;;;;;-2.23;100.00;102283.00;5243004;28;20040;-71
2023/01/26 02:23:39;;;;;;;105.28;50.92;;;;;;;-2.21;100.00;102286.53;5243768;28;20096;-71
2023/01/26 02:26:14;;;;;;;99.50;49.13;;;;;;;-2.25;100.00;102280.34;5243163;28;20377;-71
2023/01/26 02:28:46;;;;;;;95.05;46.38;;;;;;;-2.26;100.00;102280.25;5243279;28;20419;-71
2023/01/26 02:31:18;;;;;;;101.03;47.60;;;;;;;-2.25;100.00;102287.13;5242804;28;20034;-71
2023/01/26 02:33:50;;;;;;;93.53;47.42;;;;;;;-2.28;100.00;102277.59;5242915;28;20040;-70
2023/01/26 02:36:28;;;;;;;100.87;49.60;;;;;;;-2.26;100.00;102280.25;5242844;28;20036;-71
2023/01/26 02:39:28;;;;;;;100.93;48.78;;;;;;;-2.23;100.00;102283.00;5242653;28;20104;-71
2023/01/26 02:44:49;;;;;;;98.40;47.05;;;;;;;-2.25;100.00;102282.03;5243026;28;20033;-70
2023/01/26 02:47:21;;;;;;;102.77;46.87;;;;;;;-2.25;100.00;102285.44;5242507;28;20030;-70
2023/01/26 02:49:52;;;;;;;90.97;45.13;;;;;;;-2.23;100.00;102281.31;5242940;28;20535;-71
2023/01/26 02:52:26;;;;;;;94.80;47.27;;;;;;;-2.24;100.00;102271.91;5243052;28;20469;-70
2023/01/26 02:57:49;;;;;;;95.75;46.85;;;;;;;-2.15;100.00;102280.94;5243058;28;20052;-71
2023/01/26 03:00:23;;;;;;;101.78;48.47;;;;;;;-2.17;100.00;102275.72;5242802;28;20362;-70
2023/01/26 03:02:58;;;;;;;94.32;46.63;;;;;;;-2.15;100.00;102274.13;5242387;28;20041;-70
2023/01/26 03:05:29;;;;;;;98.93;47.58;;;;;;;-2.15;100.00;102273.25;5240806;28;20161;-71
2023/01/26 03:08:01;;;;;;;91.40;45.23;;;;;;;-2.11;100.00;102262.44;5242684;28;20112;-70
2023/01/26 03:10:33;;;;;;;96.63;47.77;;;;;;;-2.13;100.00;102270.00;5242320;28;20034;-70
2023/01/26 03:13:04;;;;;;;95.25;47.90;;;;;;;-2.15;100.00;102260.50;5242305;28;20112;-70
2023/01/26 03:15:42;;;;;;;93.93;45.43;;;;;;;-2.12;100.00;102261.56;5242334;28;20116;-71
2023/01/26 03:29:55;;;;;;;87.70;43.58;;;;;;;-2.10;100.00;102262.53;5242384;28;20041;-70
2023/01/26 03:32:27;;;;;;;88.18;44.08;;;;;;;-2.09;100.00;102260.88;5241594;28;20115;-70
2023/01/26 03:34:58;;;;;;;89.10;45.00;;;;;;;-2.08;100.00;102266.06;5242227;28;20025;-70
2023/01/26 03:37:35;;;;;;;84.90;42.43;;;;;;;-2.07;100.00;102264.41;5242056;28;20032;-70
2023/01/26 03:57:07;;;;;;;83.07;39.95;;;;;;;-1.94;100.00;102260.94;5241843;28;20103;-70
2023/01/26 03:59:38;;;;;;;80.83;39.93;;;;;;;-1.94;100.00;102248.16;5241891;28;20057;-70
2023/01/26 04:10:41;;;;;;;78.45;38.63;;;;;;;-1.88;100.00;102246.88;5241969;28;20393;-71
2023/01/26 04:21:44;;;;;;;81.57;37.28;;;;;;;-1.86;100.00;102252.94;5241666;28;20079;-70
2023/01/26 04:24:15;;;;;;;77.87;37.70;;;;;;;-1.84;100.00;102251.34;5245502;28;20037;-70
2023/01/26 04:26:47;;;;;;;77.53;38.13;;;;;;;-1.81;100.00;102254.91;5245727;28;20045;-70
2023/01/26 04:29:18;;;;;;;74.90;36.30;;;;;;;-1.84;100.00;102253.91;5245466;28;20483;-70
2023/01/26 04:31:50;;;;;;;78.33;38.43;;;;;;;-1.86;100.00;102244.41;5245154;28;20050;-71
2023/01/26 04:34:21;;;;;;;79.73;37.13;;;;;;;-1.81;100.00;102243.00;5245062;28;20382;-71
2023/01/26 04:36:53;;;;;;;77.87;36.07;;;;;;;-1.78;100.00;102245.75;5245356;28;20389;-70
2023/01/26 04:39:25;;;;;;;71.47;33.35;;;;;;;-1.76;100.00;102248.41;5246029;28;20049;-71
2023/01/26 04:41:57;;;;;;;75.10;35.40;;;;;;;-1.76;100.00;102251.84;5245259;28;20029;-71
2023/01/26 04:44:28;;;;;;;72.90;34.03;;;;;;;-1.77;100.00;102242.41;5245437;28;20105;-70
2023/01/26 04:46:59;;;;;;;76.47;36.67;;;;;;;-1.72;100.00;102243.56;5245378;28;20044;-71
2023/01/26 04:49:31;;;;;;;71.33;34.03;;;;;;;-1.71;100.00;102244.44;5245402;28;20476;-71
2023/01/26 04:52:02;;;;;;;73.40;36.07;;;;;;;-1.67;100.00;102251.53;5244761;28;20037;-71
2023/01/26 04:54:33;;;;;;;74.97;34.30;;;;;;;-1.66;100.00;102253.28;5244981;28;20107;-71
2023/01/26 04:57:06;;;;;;;71.07;32.57;;;;;;;-1.68;100.00;102247.19;5244423;28;20071;-71
2023/01/26 04:59:37;;;;;;;72.40;35.65;;;;;;;-1.67;100.00;102241.28;5244946;28;20025;-71
2023/01/26 05:02:09;;;;;;;69.70;31.87;;;;;;;-1.66;100.00;102250.72;5244808;28;20479;-71
2023/01/26 05:04:40;;;;;;;69.90;31.30;;;;;;;-1.69;100.00;102247.97;5244508;28;20469;-70
2023/01/26 05:07:12;;;;;;;70.13;34.10;;;;;;;-1.67;100.00;102247.28;5244776;28;20087;-70
2023/01/26 05:09:43;;;;;;;70.77;32.70;;;;;;;-1.69;100.00;102251.44;5245020;28;20045;-70
2023/01/26 05:12:32;;;;;;;62.20;31.27;;;;;;;-1.69;100.00;102247.97;5244955;28;20468;-70
2023/01/26 05:15:04;;;;;;;65.97;30.27;;;;;;;-1.64;100.00;102244.03;5244900;28;20476;-70
2023/01/26 05:17:35;;;;;;;67.27;30.83;;;;;;;-1.62;100.00;102241.56;5245030;28;20057;-70
2023/01/26 05:20:07;;;;;;;64.40;31.67;;;;;;;-1.68;100.00;102237.84;5244534;28;20389;-70
2023/01/26 05:22:39;;;;;;;63.58;29.85;;;;;;;-1.61;100.00;102246.78;5244378;28;20179;-70
2023/01/26 05:25:11;;;;;;;63.20;28.97;;;;;;;-1.63;100.00;102235.56;5244417;28;20112;-70
2023/01/26 05:27:42;;;;;;;57.60;28.13;;;;;;;-1.64;100.00;102238.94;5244294;28;20352;-70
2023/01/26 05:30:15;;;;;;;64.07;28.93;;;;;;;-1.63;100.00;102243.22;5244308;28;20038;-70
2023/01/26 05:32:46;;;;;;;59.63;28.20;;;;;;;-1.60;100.00;102252.78;5244404;28;20061;-70
2023/01/26 05:35:17;;;;;;;63.73;27.93;;;;;;;-1.64;100.00;102246.59;5243081;28;20037;-70
2023/01/26 05:37:49;;;;;;;59.40;28.83;;;;;;;-1.60;100.00;102253.66;5245014;28;20485;-69
2023/01/26 05:40:21;;;;;;;67.50;29.50;;;;;;;-1.57;100.00;102252.97;5244189;28;20392;-70
2023/01/26 05:42:53;;;;;;;67.07;29.13;;;;;;;-1.60;100.00;102240.00;5244559;28;20389;-70
2023/01/26 05:45:24;;;;;;;54.08;26.00;;;;;;;-1.57;100.00;102243.59;5244050;28;20392;-69
2023/01/26 05:47:56;;;;;;;56.40;27.37;;;;;;;-1.54;100.00;102251.47;5243968;28;20160;-69
2023/01/26 05:50:27;;;;;;;55.03;27.07;;;;;;;-1.55;100.00;102256.50;5244140;28;20091;-69
2023/01/26 05:52:59;;;;;;;56.43;29.37;;;;;;;-1.55;100.00;102247.13;5243857;28;20033;-69
2023/01/26 05:55:31;;;;;;;56.70;26.23;;;;;;;-1.51;100.00;102249.09;5243355;28;20030;-70
2023/01/26 05:58:02;;;;;;;53.57;27.07;;;;;;;-1.52;100.00;102249.88;5243690;28;20696;-70
2023/01/26 06:00:34;;;;;;;54.70;26.73;;;;;;;-1.49;100.00;102249.19;5243623;28;20026;-70
2023/01/26 06:03:05;;;;;;;57.53;27.30;;;;;;;-1.46;100.00;102249.38;5243455;28;20112;-69
2023/01/26 06:05:37;;;;;;;55.90;26.93;;;;;;;-1.48;100.00;102249.28;5243520;28;20030;-70
2023/01/26 06:08:09;;;;;;;52.67;25.15;;;;;;;-1.41;100.00;102250.53;5242264;28;20064;-70
2023/01/26 06:10:40;;;;;;;54.67;27.03;;;;;;;-1.41;100.00;102259.88;5243500;28;20075;-70
2023/01/26 06:13:11;;;;;;;56.93;27.80;;;;;;;-1.38;100.00;102262.63;5243392;28;20040;-71
2023/01/26 06:15:43;;;;;;;56.40;27.00;;;;;;;-1.38;100.00;102266.06;5243339;28;20468;-70
2023/01/26 06:18:14;;;;;;;57.17;25.07;;;;;;;-1.40;100.00;102267.66;5243240;28;20465;-70
2023/01/26 06:20:45;;;;;;;58.67;26.93;;;;;;;-1.31;100.00;102273.28;5243513;28;20042;-70
2023/01/26 06:23:17;;;;;;;55.60;25.57;;;;;;;-1.36;100.00;102277.25;5242779;28;20037;-70
2023/01/26 06:25:50;;;;;;;51.30;24.63;;;;;;;-1.39;100.00;102263.41;5243139;28;20033;-70
2023/01/26 06:28:21;;;;;;;59.38;27.05;;;;;;;-1.38;100.00;102263.50;5241483;28;20034;-70
2023/01/26 06:31:04;;;;;;;51.37;24.30;;;;;;;-1.34;100.00;102268.00;5243590;28;20354;-70
2023/01/26 06:33:37;;;;;;;52.00;24.88;;;;;;;-1.38;100.00;102249.84;5243295;28;20080;-70
2023/01/26 06:36:14;;;;;;;50.45;25.33;;;;;;;-1.34;100.00;102272.22;5242918;28;20508;-70
2023/01/26 06:38:48;;;;;;;53.20;23.30;;;;;;;-1.35;100.00;102270.50;5243405;28;20132;-70
2023/01/26 06:41:20;;;;;;;51.33;24.50;;;;;;;-1.34;100.00;102267.13;5243094;28;20104;-70
2023/01/26 06:43:52;;;;;;;51.83;24.53;;;;;;;-1.35;100.00;102273.91;5241448;28;20048;-69
2023/01/26 06:46:23;;;;;;;56.40;26.50;;;;;;;-1.38;100.00;102268.63;5241975;28;20038;-70
2023/01/26 06:48:54;;;;;;;53.63;25.60;;;;;;;-1.32;100.00;102270.63;5242290;28;20041;-70
2023/01/26 06:51:56;;;;;;;54.40;25.53;;;;;;;-1.34;100.00;102268.00;5242205;28;20104;-70
2023/01/26 06:54:27;;;;;;;56.05;24.73;;;;;;;-1.29;100.00;102275.94;5242636;28;20044;-70
2023/01/26 06:56:58;;;;;;;51.40;24.13;;;;;;;-1.29;100.00;102275.94;5224824;28;20377;-70
2023/01/26 06:59:30;;;;;;;51.83;24.33;;;;;;;-1.32;100.00;102286.91;5242573;28;20076;-70
2023/01/26 07:02:01;;;;;;;52.30;24.20;;;;;;;-1.31;100.00;102283.53;5242171;28;20033;-70
2023/01/26 07:04:33;;;;;;;55.07;24.73;;;;;;;-1.35;100.00;102273.91;5241572;28;20040;-70
2023/01/26 07:07:04;;;;;;;54.17;24.97;;;;;;;-1.34;100.00;102274.78;5242910;28;20095;-70
2023/01/26 07:09:35;;;;;;;49.73;23.43;;;;;;;-1.35;100.00;102275.59;5242341;28;20030;-70
2023/01/26 07:12:08;;;;;;;46.60;24.03;;;;;;;-1.32;100.00;102275.75;5242596;28;20433;-70
2023/01/26 07:14:39;;;;;;;57.58;25.23;;;;;;;-1.30;100.00;102284.44;5242510;28;20072;-70
2023/01/26 07:17:11;;;;;;;55.70;25.30;;;;;;;-1.32;100.00;102289.44;5243089;28;20029;-70
2023/01/26 07:19:44;;;;;;;52.53;24.67;;;;;;;-1.29;100.00;102283.63;5242869;28;20095;-70
2023/01/26 07:22:15;;;;;;;57.38;26.27;;;;;;;-1.30;100.00;102284.44;5242164;28;20469;-70
2023/01/26 07:24:46;;;;;;;55.77;25.03;;;;;;;-1.32;100.00;102293.66;5240991;28;20084;-69
2023/01/26 07:27:18;;;;;;;62.83;25.13;;;;;;;-1.31;100.00;102286.09;5242338;28;20077;-69
2023/01/26 07:29:50;;;;;;;59.90;25.17;;;;;;;-1.25;100.00;102287.28;5241772;28;20026;-69
2023/01/26 07:32:21;;;;;;;61.78;25.30;;;;;;;-1.27;100.00;102291.38;5242054;28;20135;-70
2023/01/26 07:34:52;;;;;;;58.13;26.73;;;;;;;-1.26;100.00;102288.03;5241970;28;20133;-69
2023/01/26 07:37:28;;;;;;;57.53;25.40;;;;;;;-1.20;100.00;102293.53;5241018;28;20038;-69
2023/01/26 07:39:59;;;;;;;58.25;25.05;;;;;;;-1.19;100.00;102288.50;5242361;28;20067;-69
2023/01/26 07:42:31;;;;;;;60.13;25.60;;;;;;;-1.16;100.00;102287.78;5241686;28;20473;-69
2023/01/26 07:45:02;;;;;;;56.27;26.73;;;;;;;-1.19;100.00;102283.41;5241955;28;20220;-69
2023/01/26 07:47:34;;;;;;;59.57;26.00;;;;;;;-1.18;100.00;102286.81;5241388;28;20036;-69
2023/01/26 07:50:07;;;;;;;56.75;25.13;;;;;;;-1.12;100.00;102290.63;5241472;28;20036;-69
2023/01/26 07:52:39;;;;;;;;;;;;;;;-1.08;100.00;102296.78;5242277;28;20048;-69
2023/01/26 07:55:11;;;;;;;57.60;25.08;;;;;;;-1.13;100.00;102296.56;5241522;28;19913;-70
2023/01/26 07:57:42;;;;;;;57.13;24.03;;;;;;;-1.10;100.00;102306.94;5243388;28;20117;-69
2023/01/26 08:00:15;;;;;;;60.50;27.83;;;;;;;-1.12;100.00;102300.00;5245458;28;20036;-69
2023/01/26 08:02:50;;;;;;;;;;;;;;;-1.03;100.00;102321.00;5244938;28;20380;-69
2023/01/26 08:05:21;;;;;;;60.88;26.85;;;;;;;-1.07;100.00;102320.75;5246195;28;19948;-69
2023/01/26 08:07:57;;;;;;;63.57;27.47;;;;;;;-1.08;100.00;102309.59;5245650;28;20044;-70
2023/01/26 08:10:31;;;;;;;62.00;26.60;;;;;;;-1.11;100.00;102312.00;5245531;28;20440;-69
2023/01/26 08:13:03;;;;;;;69.93;27.90;;;;;;;-1.13;100.00;102305.88;5245470;28;20033;-69
2023/01/26 08:15:34;;;;;;;66.80;28.43;;;;;;;-1.12;100.00;102316.22;5245667;28;20026;-69
2023/01/26 08:18:05;;;;;;;67.90;27.23;;;;;;;-1.11;100.00;102320.56;5245922;28;20529;-69
2023/01/26 08:20:37;;;;;;;66.53;27.00;;;;;;;-1.05;100.00;102326.81;5245212;28;20033;-69
2023/01/26 08:23:08;;;;;;;68.93;28.13;;;;;;;-1.03;100.00;102325.22;5246091;28;20033;-70
2023/01/26 08:25:39;;;;;;;74.03;30.40;;;;;;;-1.03;100.00;102325.22;5245251;28;20033;-70
2023/01/26 08:28:11;;;;;;;70.53;29.57;;;;;;;-1.03;100.00;102321.00;5245562;28;20045;-70
2023/01/26 08:30:43;;;;;;;71.33;30.20;;;;;;;-0.98;100.00;102324.72;5245078;28;20037;-69
2023/01/26 08:33:14;;;;;;;71.53;28.53;;;;;;;-0.96;100.00;102319.69;5245298;28;20092;-69
2023/01/26 08:35:45;;;;;;;67.00;29.13;;;;;;;-0.93;100.00;102317.31;5245064;28;20038;-69
2023/01/26 08:38:17;;;;;;;73.57;29.30;;;;;;;-0.91;100.00;102331.09;5244764;28;20029;-70
2023/01/26 08:40:52;;;;;;;71.63;28.63;;;;;;;-0.92;100.00;102325.09;5245170;28;20064;-70
2023/01/26 08:43:24;;;;;;;67.63;27.75;;;;;;;-0.89;100.00;102329.50;5244772;28;20026;-70
2023/01/26 08:45:56;;;;;;;68.80;28.60;;;;;;;-0.87;100.00;102329.56;5244551;28;20037;-69
2023/01/26 08:48:29;;;;;;;68.10;27.75;;;;;;;-0.81;100.00;102328.25;5244796;28;20028;-70
2023/01/26 08:51:03;;;;;;;63.85;26.30;;;;;;;-0.79;100.00;102331.81;5245076;28;20544;-70
2023/01/26 08:53:36;;;;;;;65.18;27.55;;;;;;;-0.75;100.00;102331.19;5244640;28;20528;-70
2023/01/26 08:56:09;;;;;;;;;;;;;;;-0.62;100.00;102335.34;5245537;28;20064;-70
2023/01/26 08:58:41;;;;;;;66.63;24.85;;;;;;;-0.59;100.00;102339.75;5244180;28;19909;-70
2023/01/26 09:01:14;;;;;;;64.93;28.23;;;;;;;-0.58;100.00;102333.81;5244504;28;20373;-70
2023/01/26 09:03:46;;;;;;;67.50;27.10;;;;;;;-0.55;100.00;102331.44;5244854;28;20120;-70
2023/01/26 09:06:18;;;;;;;59.23;25.90;;;;;;;-0.45;100.00;102327.72;5244376;28;20557;-70
2023/01/26 09:08:49;;;;;;;64.75;28.90;;;;;;;-0.41;100.00;102328.00;5244320;28;20049;-69
2023/01/26 09:11:20;;;;;;;65.97;28.03;;;;;;;-0.40;100.00;102336.59;5243133;28;20465;-69
2023/01/26 09:13:55;;;;;;;67.30;28.87;;;;;;;-0.30;100.00;102338.88;5244379;28;20488;-69
2023/01/26 09:16:26;;;;;;;62.00;27.13;;;;;;;-0.30;100.00;102332.88;5244344;28;20021;-69
2023/01/26 09:18:58;;;;;;;74.83;32.07;;;;;;;-0.25;100.00;102329.75;5244520;28;20095;-70
2023/01/26 09:21:29;;;;;;;73.90;30.77;;;;;;;-0.33;100.00;102342.94;5244723;28;20436;-70
2023/01/26 09:24:01;;;;;;;71.33;30.37;;;;;;;-0.35;100.00;102340.28;5242579;28;20109;-70
2023/01/26 09:26:32;;;;;;;74.87;29.20;;;;;;;-0.37;100.00;102327.38;5244121;28;20432;-70
2023/01/26 09:29:04;;;;;;;83.20;30.50;;;;;;;-0.32;100.00;102342.13;5244534;28;20022;-70
2023/01/26 09:31:35;;;;;;;75.97;29.70;;;;;;;-0.32;100.00;102339.56;5243918;28;20057;-70
2023/01/26 09:34:06;;;;;;;81.43;28.87;;;;;;;-0.29;100.00;102343.19;5244840;28;20049;-69
2023/01/26 09:36:38;;;;;;;86.13;30.03;;;;;;;-0.30;100.00;102344.00;5243666;28;20125;-69
2023/01/26 09:39:09;;;;;;;82.30;28.43;;;;;;;-0.27;100.00;102339.03;5244154;28;20362;-69
2023/01/26 09:42:08;;;;;;;80.20;27.80;;;;;;;-0.21;100.00;102341.03;5243547;28;20453;-70
2023/01/26 09:44:50;;;;;;;78.30;29.02;;;;;;;-0.15;100.00;102348.22;5243546;28;20469;-70
2023/01/26 09:47:30;;;;;;;79.70;28.73;;;;;;;-0.12;100.00;102349.25;5243761;28;20040;-70
2023/01/26 09:50:10;;;;;;;76.10;28.95;;;;;;;-0.03;100.00;102349.78;5243931;28;20076;-70
2023/01/26 09:52:59;;;;;;;70.60;27.20;;;;;;;0.02;100.00;102344.91;5243931;28;20034;-70
2023/01/26 09:55:30;;;;;;;66.35;27.58;;;;;;;0.03;100.00;102350.91;5244086;28;20326;-70
2023/01/26 09:58:05;;;;;;;76.77;29.87;;;;;;;-0.02;100.00;102348.09;5244277;28;20116;-69
2023/01/26 10:00:46;;;;;;;74.00;29.15;;;;;;;0.00;100.00;102351.66;5243506;28;20052;-70
2023/01/26 10:03:49;;;;;;;76.18;29.20;;;;;;;0.02;100.00;102351.69;5243580;28;20084;-70
2023/01/26 10:06:31;;;;;;;84.50;30.63;;;;;;;-0.04;100.00;102348.00;5243087;28;20041;-70
2023/01/26 10:09:15;;;;;;;74.57;28.92;;;;;;;0.03;100.00;102350.91;5241980;28;20033;-70
2023/01/26 10:11:57;;;;;;;80.68;31.58;;;;;;;0.06;100.00;102336.56;5243455;28;20338;-70
2023/01/26 10:14:31;;;;;;;70.63;28.40;;;;;;;0.16;100.00;102349.13;5243270;28;20065;-70
2023/01/26 10:17:05;;;;;;;85.47;31.70;;;;;;;0.14;100.00;102347.25;5243088;28;20076;-70
2023/01/26 10:19:44;;;;;;;112.88;32.42;;;;;;;0.18;100.00;102349.22;5242289;28;20025;-70
2023/01/26 10:22:42;;;;;;;84.93;31.13;;;;;;;0.19;100.00;102340.69;5243251;28;20033;-70
2023/01/26 10:25:20;;;;;;;71.50;30.35;;;;;;;0.29;100.00;102342.97;5242282;28;20048;-70
2023/01/26 10:27:51;;;;;;;84.30;31.65;;;;;;;0.36;100.00;102337.38;5242816;28;20060;-70
2023/01/26 10:30:23;;;;;;;88.23;31.67;;;;;;;0.47;100.00;102337.09;5242094;28;20072;-70
2023/01/26 10:32:55;;;;;;;76.63;29.77;;;;;;;0.52;100.00;102348.47;5242411;28;20099;-70
2023/01/26 10:35:26;;;;;;;77.73;32.43;;;;;;;0.56;100.00;102350.38;5241336;28;20036;-70
2023/01/26 10:37:57;;;;;;;83.87;30.23;;;;;;;0.58;100.00;102346.22;5242832;28;20128;-70
2023/01/26 10:40:40;;;;;;;88.03;31.53;;;;;;;0.62;100.00;102345.56;5242419;28;20024;-70
2023/01/26 10:43:16;;;;;;;;;;;;;;;0.77;100.00;102357.47;5243279;28;20025;-70
2023/01/26 10:45:47;;;;;;;89.05;30.33;;;;;;;0.79;100.00;102349.03;5242594;28;20363;-70
2023/01/26 10:48:25;;;;;;;84.20;32.50;;;;;;;0.80;100.00;102348.22;5243074;28;20033;-70
2023/01/26 10:51:19;;;;;;;91.57;33.30;;;;;;;0.85;100.00;102339.09;5242659;28;20104;-69
2023/01/26 10:54:17;;;;;;;92.57;33.63;;;;;;;0.98;100.00;102348.28;5242115;28;20061;-69
2023/01/26 10:56:56;;;;;;;92.35;33.63;;;;;;;1.08;100.00;102352.25;5242322;28;20029;-69
2023/01/26 10:59:33;;;;;;;83.20;32.28;;;;;;;1.20;100.00;102355.41;5242517;28;20029;-69
2023/01/26 11:02:11;;;;;;;85.97;31.50;;;;;;;1.23;100.00;102355.56;5242241;28;20108;-69
2023/01/26 11:05:06;;;;;;;72.55;31.73;;;;;;;1.36;100.00;102349.38;5242331;28;20030;-69
2023/01/26 11:07:40;;;;;;;91.85;32.60;;;;;;;1.38;100.00;102345.19;5242100;28;20025;-69
2023/01/26 11:10:19;;;;;;;98.00;32.80;;;;;;;1.59;100.00;102345.34;5242096;28;20095;-69
2023/01/26 11:13:06;;;;;;;86.43;33.45;;;;;;;1.77;100.00;102342.81;5242085;28;20373;-69
2023/01/26 11:15:40;;;;;;;85.75;31.85;;;;;;;1.80;100.00;102335.25;5242035;28;20036;-69
2023/01/26 11:18:21;;;;;;;85.22;32.63;;;;;;;1.95;100.00;102339.38;5242351;28;20055;-69
2023/01/26 11:21:09;;;;;;;86.32;30.38;;;;;;;1.97;100.00;102338.63;5241750;28;20057;-69
2023/01/26 11:23:40;;;;;;;83.97;32.03;;;;;;;2.05;100.00;102339.00;5241355;28;20388;-69
2023/01/26 11:26:20;;;;;;;83.27;32.80;;;;;;;2.20;100.00;102343.97;5242307;28;20029;-69
2023/01/26 11:29:14;;;;;;;84.68;30.20;;;;;;;2.27;100.00;102339.97;5241786;28;20076;-69
2023/01/26 11:31:48;;;;;;;83.85;28.10;;;;;;;2.41;100.00;102346.66;5242331;28;20025;-69
2023/01/26 11:34:58;;;;;;;67.57;28.35;;;;;;;2.64;100.00;102349.38;5242228;28;20060;-70
2023/01/26 11:37:40;;;;;;;81.70;28.73;;;;;;;2.82;100.00;102339.00;5241414;28;20026;-69
2023/01/26 11:40:30;;;;;;;75.47;29.38;;;;;;;3.01;100.00;102345.84;5242128;28;20037;-69
2023/01/26 11:43:07;;;;;;;68.97;27.77;;;;;;;3.20;100.00;102345.81;5241871;28;20025;-69
2023/01/26 11:46:07;;;;;;;72.05;29.13;;;;;;;3.41;100.00;102337.25;5242093;28;20033;-69
2023/01/26 11:49:08;;;;;;;67.70;25.98;;;;;;;3.53;100.00;102334.31;5242073;28;20033;-70
2023/01/26 11:51:52;;;;;;;66.88;25.25;;;;;;;3.86;100.00;102334.75;5242013;28;20042;-70
2023/01/26 11:54:48;;;;;;;68.70;25.92;;;;;;;4.04;100.00;102329.44;5242070;28;20141;-69
2023/01/26 11:58:10;;;;;;;62.15;24.75;;;;;;;4.25;100.00;102328.50;5241243;28;20485;-69
2023/01/26 12:00:49;;;;;;;68.10;25.45;;;;;;;4.60;100.00;102311.75;5240360;28;20534;-69
2023/01/26 12:03:42;;;;;;;53.72;23.40;;;;;;;5.43;100.00;102316.34;5241143;28;20029;-69
2023/01/26 12:06:24;;;;;;;47.97;20.52;;;;;;;5.82;100.00;102318.44;5240834;28;20033;-69
2023/01/26 12:09:04;;;;;;;46.22;21.88;;;;;;;6.02;100.00;102311.31;5241738;28;20025;-69
2023/01/26 12:11:43;;;;;;;46.25;21.52;;;;;;;6.52;100.00;102305.88;5241490;28;20025;-69
2023/01/26 12:14:37;;;;;;;46.08;20.40;;;;;;;7.34;100.00;102314.13;5241047;28;20092;-69
2023/01/26 12:17:25;;;;;;;;;;;;;;;8.09;100.00;102314.13;5241728;28;20049;-70
2023/01/26 12:20:33;;;;;;;37.15;14.13;;;;;;;7.74;100.00;102304.69;5241554;28;19979;-70
2023/01/26 12:23:07;;;;;;;26.58;12.75;;;;;;;7.07;100.00;102306.53;5241539;28;20449;-70
2023/01/26 12:25:54;;;;;;;35.55;15.13;;;;;;;6.78;100.00;102298.84;5241499;28;20022;-70
2023/01/26 12:28:53;;;;;;;36.05;12.48;;;;;;;6.61;100.00;102300.09;5241283;28;20022;-69
2023/01/26 12:31:53;;;;;;;42.20;12.70;;;;;;;6.23;100.00;102294.69;5241798;28;20453;-70